Time;durP1;ratioP1;P1;durP2;ratioP2;P2;SDS_P1;SDS_P2;PMS_P1;PMS_P2;Temp;Humidity;BMP_temperature;BMP_pressure;BME280_temperature;BME280_humidity;BME280_pressure;Samples;Min_cycle;Max_cycle;Signal;HPM_P1;HPM_P2
2022/08/26 00:01:16;;;;;;;1999.90;999.90;;;23.60;99.90;;;;;;5021683;28;20379;-65
2022/08/26 00:03:43;;;;;;;1999.90;999.90;;;23.50;99.90;;;;;;5021363;28;20461;-65
2022/08/26 00:06:08;;;;;;;1999.90;999.90;;;23.40;99.90;;;;;;5021843;28;20773;-65
2022/08/26 00:08:34;;;;;;;1999.90;999.90;;;23.40;99.90;;;;;;5021260;28;20424;-65
2022/08/26 00:11:00;;;;;;;1999.90;999.90;;;23.30;99.90;;;;;;5022171;28;20894;-64
2022/08/26 00:13:27;;;;;;;1999.90;999.90;;;23.30;99.90;;;;;;5022273;28;20165;-65
2022/08/26 00:15:52;;;;;;;1999.90;999.90;;;23.20;99.90;;;;;;5020006;28;20177;-65
2022/08/26 00:18:19;;;;;;;1999.90;999.90;;;23.20;99.90;;;;;;5020988;28;20410;-64
2022/08/26 00:20:44;;;;;;;1999.90;999.90;;;23.10;99.90;;;;;;5022456;28;20386;-65
2022/08/26 00:23:10;;;;;;;1999.90;999.90;;;23.00;99.90;;;;;;5021403;28;20450;-64
2022/08/26 00:25:37;;;;;;;1999.90;999.90;;;22.90;99.90;;;;;;5020820;28;20179;-66
2022/08/26 00:28:04;;;;;;;1999.90;999.90;;;22.90;99.90;;;;;;5035456;23;20200;-69
2022/08/26 00:30:30;;;;;;;1999.90;999.90;;;22.80;99.90;;;;;;5033070;28;20468;-70
2022/08/26 00:32:57;;;;;;;1999.90;999.90;;;22.70;99.90;;;;;;5033295;28;20413;-70
2022/08/26 00:35:24;;;;;;;1999.90;999.90;;;22.60;99.90;;;;;;5033590;28;20408;-71
2022/08/26 00:37:50;;;;;;;1999.90;999.90;;;22.60;99.90;;;;;;5032990;28;20402;-71
2022/08/26 00:40:21;;;;;;;1999.90;999.90;;;22.40;99.90;;;;;;5033254;28;20393;-71
2022/08/26 00:42:47;;;;;;;1999.90;999.90;;;22.40;99.90;;;;;;5033085;28;20457;-70
2022/08/26 00:45:14;;;;;;;1999.90;999.90;;;22.40;99.90;;;;;;5033121;28;20480;-70
2022/08/26 00:47:45;;;;;;;1999.90;999.90;;;22.50;99.90;;;;;;5032672;28;20900;-70
2022/08/26 00:50:15;;;;;;;1999.90;999.90;;;22.50;99.90;;;;;;5033103;28;20460;-70
2022/08/26 00:52:41;;;;;;;1999.90;999.90;;;22.50;99.90;;;;;;5032998;28;20417;-69
2022/08/26 00:55:42;;;;;;;1999.90;999.90;;;22.40;99.90;;;;;;5032847;28;20485;-70
2022/08/26 00:58:08;;;;;;;1999.90;999.90;;;22.40;99.90;;;;;;5032188;28;20785;-70
2022/08/26 01:00:34;;;;;;;1999.90;999.90;;;22.30;99.90;;;;;;5032729;28;20434;-70
2022/08/26 01:03:02;;;;;;;1999.90;999.90;;;22.30;99.90;;;;;;5032802;28;20294;-70
2022/08/26 01:05:28;;;;;;;1999.90;999.90;;;22.30;99.90;;;;;;5032710;28;20393;-70
2022/08/26 01:07:54;;;;;;;1999.90;999.90;;;22.30;99.90;;;;;;5032284;28;20384;-70
2022/08/26 01:10:26;;;;;;;1999.90;999.90;;;22.20;99.90;;;;;;5032537;28;20381;-70
2022/08/26 01:12:56;;;;;;;1999.90;999.90;;;22.20;99.90;;;;;;5032708;28;20183;-70
2022/08/26 01:15:26;;;;;;;1999.90;999.90;;;22.10;99.90;;;;;;5032731;28;20775;-69
2022/08/26 01:17:52;;;;;;;1999.90;999.90;;;22.00;99.90;;;;;;5032105;28;20381;-69
2022/08/26 01:20:24;;;;;;;1999.90;999.90;;;22.00;99.90;;;;;;5032493;28;20408;-69
2022/08/26 01:23:10;;;;;;;1999.90;999.90;;;21.90;99.90;;;;;;5032371;28;20217;-69
2022/08/26 01:25:40;;;;;;;1999.90;999.90;;;21.90;99.90;;;;;;5032265;28;20418;-70
2022/08/26 01:28:10;;;;;;;1999.90;999.90;;;21.90;99.90;;;;;;5032027;28;20842;-69
2022/08/26 01:30:38;;;;;;;1999.90;999.90;;;21.80;99.90;;;;;;5032358;28;20381;-70
2022/08/26 01:33:09;;;;;;;1999.90;999.90;;;21.80;99.90;;;;;;5032279;28;20425;-69
2022/08/26 01:35:36;;;;;;;1999.90;999.90;;;21.70;99.90;;;;;;5032149;28;20400;-69
2022/08/26 01:38:02;;;;;;;1999.90;999.90;;;21.80;99.90;;;;;;5031275;28;20425;-69
2022/08/26 01:40:32;;;;;;;1999.90;999.90;;;21.70;99.90;;;;;;5032215;28;20392;-69
2022/08/26 01:43:00;;;;;;;1999.90;999.90;;;21.70;99.90;;;;;;5032055;28;20446;-69
2022/08/26 01:45:29;;;;;;;1999.90;999.90;;;21.60;99.90;;;;;;5032049;28;20386;-69
2022/08/26 01:47:58;;;;;;;1999.90;999.90;;;21.50;99.90;;;;;;5031994;28;20885;-69
2022/08/26 01:50:29;;;;;;;1999.90;999.90;;;21.60;99.90;;;;;;5031999;28;20385;-69
2022/08/26 01:52:56;;;;;;;1999.90;999.90;;;21.50;99.90;;;;;;5032228;28;20401;-70
2022/08/26 01:55:23;;;;;;;1999.90;999.90;;;21.50;99.90;;;;;;5031935;28;20907;-70
2022/08/26 01:57:53;;;;;;;1999.90;999.90;;;21.40;99.90;;;;;;5031558;28;20395;-69
2022/08/26 02:00:19;;;;;;;1999.90;999.90;;;21.50;99.90;;;;;;5031926;28;20388;-69
2022/08/26 02:02:47;;;;;;;1999.90;999.90;;;21.40;99.90;;;;;;5031747;28;20374;-70
2022/08/26 02:05:20;;;;;;;1999.90;999.90;;;21.40;99.90;;;;;;5031946;28;20412;-69
2022/08/26 02:07:47;;;;;;;1999.90;999.90;;;21.40;99.90;;;;;;5031538;28;20409;-70
2022/08/26 02:10:14;;;;;;;1999.90;999.90;;;21.40;99.90;;;;;;5031779;28;20439;-69
2022/08/26 02:12:40;;;;;;;1999.90;999.90;;;21.40;99.90;;;;;;5031810;28;20880;-69
2022/08/26 02:15:09;;;;;;;1999.90;999.90;;;21.40;99.90;;;;;;5031801;28;20531;-69
2022/08/26 02:17:44;;;;;;;1999.90;999.90;;;21.50;99.90;;;;;;5031490;28;20401;-69
2022/08/26 02:20:13;;;;;;;1999.90;999.90;;;21.40;99.90;;;;;;5031777;28;20928;-69
2022/08/26 02:22:40;;;;;;;1999.90;999.90;;;21.40;99.90;;;;;;5031771;28;20866;-69
2022/08/26 02:25:24;;;;;;;1999.90;999.90;;;21.30;99.90;;;;;;5031812;28;20388;-69
2022/08/26 02:27:50;;;;;;;1999.90;999.90;;;21.40;99.90;;;;;;5031265;28;20397;-69
2022/08/26 02:30:37;;;;;;;1999.90;999.90;;;21.30;99.90;;;;;;5031610;28;20428;-69
2022/08/26 02:33:03;;;;;;;1999.90;999.90;;;21.30;99.90;;;;;;5031584;28;20387;-69
2022/08/26 02:35:30;;;;;;;1999.90;999.90;;;21.30;99.90;;;;;;5031633;28;20904;-69
2022/08/26 02:37:57;;;;;;;1999.90;999.90;;;21.30;99.90;;;;;;5031192;28;20638;-69
2022/08/26 02:40:26;;;;;;;1999.90;999.90;;;21.40;99.90;;;;;;5031540;28;20405;-69
2022/08/26 02:42:52;;;;;;;1999.90;999.90;;;21.40;99.90;;;;;;5031661;28;20402;-69
2022/08/26 02:45:18;;;;;;;1999.90;999.90;;;21.50;99.90;;;;;;5031657;28;20389;-69
2022/08/26 02:47:44;;;;;;;1999.90;999.90;;;21.50;99.90;;;;;;5031276;28;20493;-69
2022/08/26 02:50:10;;;;;;;1999.90;999.90;;;21.40;99.90;;;;;;5034461;28;20191;-69
2022/08/26 02:52:36;;;;;;;1999.90;999.90;;;21.40;99.90;;;;;;5035144;28;20174;-69
2022/08/26 02:55:02;;;;;;;1999.90;999.90;;;21.40;99.90;;;;;;5035111;28;20840;-69
2022/08/26 02:57:29;;;;;;;1999.90;999.90;;;21.50;99.90;;;;;;5034920;28;20389;-69
2022/08/26 02:59:56;;;;;;;1999.90;999.90;;;21.40;99.90;;;;;;5035116;28;20420;-69
2022/08/26 03:02:22;;;;;;;1999.90;999.90;;;21.30;99.90;;;;;;5034969;28;20862;-70
2022/08/26 03:04:49;;;;;;;1999.90;999.90;;;21.40;99.90;;;;;;5034893;28;20924;-69
2022/08/26 03:07:15;;;;;;;1999.90;999.90;;;21.40;99.90;;;;;;5034550;28;20460;-69
2022/08/26 03:09:40;;;;;;;1999.90;999.90;;;21.40;99.90;;;;;;5034754;28;20433;-69
2022/08/26 03:12:06;;;;;;;1999.90;999.90;;;21.40;99.90;;;;;;5034992;28;20178;-69
2022/08/26 03:14:32;;;;;;;1999.90;999.90;;;21.40;99.90;;;;;;5034794;28;20573;-69
2022/08/26 03:16:58;;;;;;;1999.90;999.90;;;21.40;99.90;;;;;;5034499;28;20172;-69
2022/08/26 03:19:24;;;;;;;1999.90;999.90;;;21.40;99.90;;;;;;5034671;28;20186;-69
2022/08/26 03:21:52;;;;;;;1999.90;999.90;;;21.40;99.90;;;;;;5034557;28;20483;-69
2022/08/26 03:24:18;;;;;;;1999.90;999.90;;;21.40;99.90;;;;;;5034559;28;20428;-69
2022/08/26 03:26:44;;;;;;;1999.90;999.90;;;21.40;99.90;;;;;;5034295;28;20442;-69
2022/08/26 03:31:54;;;;;;;1999.90;999.90;;;21.40;99.90;;;;;;5034742;28;20446;-69
2022/08/26 03:34:20;;;;;;;1999.90;999.90;;;21.40;99.90;;;;;;5034370;28;20385;-69
2022/08/26 03:36:45;;;;;;;1999.90;999.90;;;21.20;99.90;;;;;;5034034;28;20178;-69
2022/08/26 03:39:12;;;;;;;1999.90;999.90;;;21.20;99.90;;;;;;5034269;28;20190;-71
2022/08/26 03:41:39;;;;;;;1999.90;999.90;;;21.20;99.90;;;;;;5034284;28;20170;-71
2022/08/26 03:44:07;;;;;;;1999.90;999.90;;;21.20;99.90;;;;;;5034378;28;20801;-71
2022/08/26 03:46:33;;;;;;;1999.90;999.90;;;21.20;99.90;;;;;;5034349;28;20482;-71
2022/08/26 03:49:01;;;;;;;1999.90;999.90;;;21.20;99.90;;;;;;5034155;28;20482;-71
2022/08/26 03:51:26;;;;;;;1999.90;999.90;;;21.20;99.90;;;;;;5034210;28;20416;-71
2022/08/26 03:53:52;;;;;;;1999.90;999.90;;;21.30;99.90;;;;;;5034182;28;20388;-71
2022/08/26 03:56:18;;;;;;;1999.90;999.90;;;21.20;99.90;;;;;;5033857;28;20173;-70
2022/08/26 03:58:44;;;;;;;1999.90;999.90;;;21.20;99.90;;;;;;5033955;28;20191;-71
2022/08/26 04:01:13;;;;;;;1999.90;999.90;;;21.20;99.90;;;;;;5033191;28;20222;-71
2022/08/26 04:03:57;;;;;;;1999.90;999.90;;;21.20;99.90;;;;;;5033820;28;20203;-71
2022/08/26 04:06:42;;;;;;;1999.90;999.90;;;21.20;99.90;;;;;;5033648;28;20797;-71
2022/08/26 04:09:14;;;;;;;1999.90;999.90;;;21.20;99.90;;;;;;5033792;28;20885;-71
2022/08/26 04:11:43;;;;;;;1999.90;999.90;;;21.20;99.90;;;;;;5033767;28;20768;-71
2022/08/26 04:14:14;;;;;;;1999.90;999.90;;;21.20;99.90;;;;;;5033677;28;20389;-71
2022/08/26 04:16:41;;;;;;;1999.90;999.90;;;21.20;99.90;;;;;;5033432;28;20848;-71
2022/08/26 04:19:08;;;;;;;1999.90;999.90;;;21.20;99.90;;;;;;5033703;28;20485;-71
2022/08/26 04:21:33;;;;;;;1999.90;999.90;;;21.20;99.90;;;;;;5033517;28;20901;-71
2022/08/26 04:23:59;;;;;;;1999.90;999.90;;;21.20;99.90;;;;;;5033527;28;20432;-71
2022/08/26 04:26:25;;;;;;;1999.90;999.90;;;21.20;99.90;;;;;;5033068;28;20418;-71
2022/08/26 04:28:53;;;;;;;1999.90;999.90;;;21.20;99.90;;;;;;5033570;28;20551;-70
2022/08/26 04:31:19;;;;;;;1999.90;999.90;;;21.20;99.90;;;;;;5033605;28;20169;-71
2022/08/26 04:33:47;;;;;;;1999.90;999.90;;;21.20;99.90;;;;;;5033446;28;20413;-71
2022/08/26 04:36:13;;;;;;;1999.90;999.90;;;21.20;99.90;;;;;;5033105;28;20436;-71
2022/08/26 04:38:39;;;;;;;1999.90;999.90;;;21.20;99.90;;;;;;5033242;28;20505;-71
2022/08/26 04:41:07;;;;;;;1999.90;999.90;;;21.20;99.90;;;;;;5033236;28;20461;-71
2022/08/26 04:43:33;;;;;;;1999.90;999.90;;;21.30;99.90;;;;;;5033290;28;20293;-71
2022/08/26 04:46:04;;;;;;;1999.90;999.90;;;21.20;99.90;;;;;;5033026;28;20967;-71
2022/08/26 04:48:31;;;;;;;1999.90;999.90;;;21.20;99.90;;;;;;5033350;28;20257;-71
2022/08/26 04:50:58;;;;;;;1999.90;999.90;;;21.20;99.90;;;;;;5033010;28;20409;-71
2022/08/26 04:53:25;;;;;;;1999.90;999.90;;;21.20;99.90;;;;;;5033052;28;20403;-71
2022/08/26 04:55:50;;;;;;;1999.90;999.90;;;21.20;99.90;;;;;;5032873;28;20405;-71
2022/08/26 04:58:18;;;;;;;1999.90;999.90;;;21.20;99.90;;;;;;5032764;28;20892;-71
2022/08/26 05:00:49;;;;;;;1999.90;999.90;;;21.20;99.90;;;;;;5032830;28;20652;-71
2022/08/26 05:03:16;;;;;;;1999.90;999.90;;;21.20;99.90;;;;;;5032754;28;21184;-71
2022/08/26 05:05:43;;;;;;;1999.90;999.90;;;21.30;99.90;;;;;;5032874;28;20420;-71
2022/08/26 05:08:11;;;;;;;1999.90;999.90;;;21.30;99.90;;;;;;5032510;28;20418;-71
2022/08/26 05:10:42;;;;;;;1999.90;999.90;;;21.20;99.90;;;;;;5032911;28;20404;-70
2022/08/26 05:13:08;;;;;;;1999.90;999.90;;;21.20;99.90;;;;;;5033059;28;20411;-70
2022/08/26 05:15:35;;;;;;;1999.90;999.90;;;21.20;99.90;;;;;;5032756;28;20917;-70
2022/08/26 05:18:05;;;;;;;1999.90;999.90;;;21.20;99.90;;;;;;5032175;28;20461;-69
2022/08/26 05:20:32;;;;;;;1999.90;999.90;;;21.20;99.90;;;;;;5032358;28;20384;-69
2022/08/26 05:23:00;;;;;;;1999.90;999.90;;;21.20;99.90;;;;;;5032308;28;20901;-69
2022/08/26 05:25:27;;;;;;;1999.90;999.90;;;21.20;99.90;;;;;;5032339;28;20419;-69
2022/08/26 05:27:52;;;;;;;1999.90;999.90;;;21.20;99.90;;;;;;5031954;28;20907;-69
2022/08/26 05:30:18;;;;;;;1999.90;999.90;;;21.20;99.90;;;;;;5032185;28;20421;-69
2022/08/26 05:32:47;;;;;;;1999.90;999.90;;;21.30;99.90;;;;;;5032291;28;20238;-69
2022/08/26 05:35:13;;;;;;;1999.90;999.90;;;21.30;99.90;;;;;;5032116;28;20414;-69
2022/08/26 05:37:39;;;;;;;1999.90;999.90;;;21.40;99.90;;;;;;5031949;28;20489;-69
2022/08/26 05:40:06;;;;;;;1999.90;999.90;;;21.30;99.90;;;;;;5032065;28;20401;-69
2022/08/26 05:42:32;;;;;;;1999.90;999.90;;;21.30;99.90;;;;;;5032080;28;20182;-69
2022/08/26 05:44:57;;;;;;;1999.90;999.90;;;21.20;99.90;;;;;;5032081;28;20435;-69
2022/08/26 05:47:25;;;;;;;1999.90;999.90;;;21.20;99.90;;;;;;5031796;28;20418;-69
2022/08/26 05:49:50;;;;;;;1999.90;999.90;;;21.20;99.90;;;;;;5031861;28;20190;-69
2022/08/26 05:52:16;;;;;;;1999.90;999.90;;;21.30;99.90;;;;;;5031993;28;20905;-69
2022/08/26 05:54:42;;;;;;;1999.90;999.90;;;21.30;99.90;;;;;;5031990;28;20179;-69
2022/08/26 05:57:07;;;;;;;1999.90;999.90;;;21.40;99.90;;;;;;5031653;28;20167;-69
2022/08/26 05:59:33;;;;;;;1999.90;999.90;;;21.40;99.90;;;;;;5031913;28;20199;-69
2022/08/26 06:01:58;;;;;;;1999.90;999.90;;;21.40;99.90;;;;;;5031923;28;20218;-69
2022/08/26 06:04:24;;;;;;;1999.90;999.90;;;21.40;99.90;;;;;;5031738;28;20585;-69
2022/08/26 06:06:50;;;;;;;1999.90;999.90;;;21.40;99.90;;;;;;5031587;28;20164;-69
2022/08/26 06:09:17;;;;;;;1999.90;999.90;;;21.50;99.90;;;;;;5031814;28;20573;-69
2022/08/26 06:11:43;;;;;;;1999.90;999.90;;;21.50;99.90;;;;;;5031859;28;20407;-69
2022/08/26 06:14:09;;;;;;;1999.90;999.90;;;21.50;99.90;;;;;;5031830;28;20413;-69
2022/08/26 06:16:37;;;;;;;1999.90;999.90;;;21.60;99.90;;;;;;5031563;28;20190;-69
2022/08/26 06:19:05;;;;;;;1999.90;999.90;;;21.50;99.90;;;;;;5031608;28;20429;-69
2022/08/26 06:21:33;;;;;;;1999.90;999.90;;;21.50;99.90;;;;;;5031752;28;20500;-69
2022/08/26 06:26:50;;;;;;;1999.90;999.90;;;21.60;99.90;;;;;;5035769;28;20383;-69
2022/08/26 06:29:16;;;;;;;1999.90;999.90;;;21.60;99.90;;;;;;5076834;22;20485;-69
2022/08/26 06:31:42;;;;;;;1999.90;999.90;;;21.60;99.90;;;;;;5036293;28;20881;-68
2022/08/26 06:34:08;;;;;;;1999.90;999.90;;;21.60;99.90;;;;;;5037027;28;20402;-68
2022/08/26 06:36:34;;;;;;;1999.90;999.90;;;21.70;99.90;;;;;;5046385;28;20167;-68
2022/08/26 06:39:08;;;;;;;1999.90;999.90;;;21.70;99.90;;;;;;5047241;28;20261;-68
2022/08/26 06:41:33;;;;;;;1999.90;999.90;;;21.70;99.90;;;;;;5046839;28;20854;-67
2022/08/26 06:44:01;;;;;;;1999.90;999.90;;;21.80;99.90;;;;;;5043502;28;20463;-68
2022/08/26 06:46:27;;;;;;;1999.90;999.90;;;21.80;99.90;;;;;;5045894;28;20260;-68
2022/08/26 06:48:53;;;;;;;1999.90;999.90;;;21.70;99.90;;;;;;5046097;28;20404;-69
2022/08/26 06:51:23;;;;;;;1999.90;999.90;;;21.80;99.90;;;;;;5045955;28;20420;-68
2022/08/26 06:53:50;;;;;;;1999.90;999.90;;;21.80;99.90;;;;;;5047111;28;20797;-68
2022/08/26 06:56:20;;;;;;;1999.90;999.90;;;21.70;99.90;;;;;;5047044;28;20414;-68
2022/08/26 06:58:46;;;;;;;1999.90;999.90;;;21.70;99.90;;;;;;5047934;28;20505;-68
2022/08/26 07:01:17;;;;;;;1999.90;999.90;;;21.70;99.90;;;;;;5042413;28;21110;-67
2022/08/26 07:03:44;;;;;;;1999.90;999.90;;;21.70;99.90;;;;;;5035086;28;20564;-67
2022/08/26 07:06:10;;;;;;;1999.90;999.90;;;21.70;99.90;;;;;;5034763;28;20414;-67
2022/08/26 07:08:35;;;;;;;1999.90;999.90;;;21.70;99.90;;;;;;5035554;28;20948;-69
2022/08/26 07:11:09;;;;;;;1999.90;999.90;;;21.70;99.90;;;;;;5035458;28;20173;-68
2022/08/26 07:13:37;;;;;;;1999.90;999.90;;;21.70;99.90;;;;;;5034947;28;20175;-68
2022/08/26 07:16:05;;;;;;;1999.90;999.90;;;21.70;99.90;;;;;;5034472;28;20438;-67
2022/08/26 07:18:33;;;;;;;1999.90;999.90;;;21.80;99.90;;;;;;5035085;28;20480;-68
2022/08/26 07:21:04;;;;;;;1999.90;999.90;;;21.70;99.90;;;;;;5035347;28;20479;-69
2022/08/26 07:23:31;;;;;;;1999.90;999.90;;;21.70;99.90;;;;;;5035288;28;20502;-69
2022/08/26 07:25:57;;;;;;;1999.90;999.90;;;21.80;99.90;;;;;;5034656;28;20385;-68
2022/08/26 07:28:23;;;;;;;1999.90;999.90;;;21.80;99.90;;;;;;5034403;28;20401;-68
2022/08/26 07:30:48;;;;;;;1999.90;999.90;;;21.80;99.90;;;;;;5034535;28;20175;-67
2022/08/26 07:33:15;;;;;;;1999.90;999.90;;;21.70;99.90;;;;;;5034447;28;20919;-67
2022/08/26 07:35:41;;;;;;;1999.90;999.90;;;21.70;99.90;;;;;;5039402;28;20184;-68
2022/08/26 07:38:07;;;;;;;1999.90;999.90;;;21.70;99.90;;;;;;5045823;28;20416;-68
2022/08/26 07:40:33;;;;;;;1999.90;999.90;;;21.60;99.90;;;;;;5045068;28;20491;-68
2022/08/26 07:42:58;;;;;;;1999.90;999.90;;;21.60;99.90;;;;;;5037605;28;20178;-68
2022/08/26 07:45:24;;;;;;;1999.90;999.90;;;21.50;99.90;;;;;;5034279;28;20246;-68
2022/08/26 07:47:50;;;;;;;1999.90;999.90;;;21.60;99.90;;;;;;5033933;28;20626;-68
2022/08/26 07:50:16;;;;;;;1999.90;999.90;;;21.60;99.90;;;;;;5034101;28;20241;-67
2022/08/26 07:52:42;;;;;;;1999.90;999.90;;;21.60;99.90;;;;;;5034072;28;20375;-67
2022/08/26 07:55:09;;;;;;;1999.90;999.90;;;21.70;99.90;;;;;;5034020;28;20254;-67
2022/08/26 07:57:35;;;;;;;1999.90;999.90;;;21.90;99.90;;;;;;5033811;28;20178;-67
2022/08/26 08:00:05;;;;;;;1999.90;999.90;;;21.70;99.90;;;;;;5033860;28;20441;-67
2022/08/26 08:02:31;;;;;;;1999.90;999.90;;;21.80;99.90;;;;;;5044688;28;20491;-68
2022/08/26 08:04:58;;;;;;;1999.90;999.90;;;21.70;99.90;;;;;;5045563;28;20458;-68
2022/08/26 08:07:24;;;;;;;1999.90;999.90;;;21.80;99.90;;;;;;5047390;28;20386;-67
2022/08/26 08:09:50;;;;;;;1999.90;999.90;;;21.80;99.90;;;;;;5045870;28;20426;-67
2022/08/26 08:12:17;;;;;;;1999.90;999.90;;;21.80;99.90;;;;;;5045789;28;20409;-68
2022/08/26 08:14:45;;;;;;;1999.90;999.90;;;21.90;99.90;;;;;;5046006;28;20258;-68
2022/08/26 08:17:14;;;;;;;1999.90;999.90;;;21.80;99.90;;;;;;5045181;28;20390;-68
2022/08/26 08:19:40;;;;;;;1999.90;999.90;;;21.80;99.90;;;;;;5045393;28;20473;-68
2022/08/26 08:22:07;;;;;;;1999.90;999.90;;;21.80;99.90;;;;;;5046450;28;20400;-67
2022/08/26 08:24:33;;;;;;;1999.90;999.90;;;21.80;99.90;;;;;;5044549;28;20458;-68
2022/08/26 08:27:00;;;;;;;1999.90;999.90;;;21.80;99.90;;;;;;5044283;28;20406;-68
2022/08/26 08:29:28;;;;;;;1999.90;999.90;;;21.70;99.90;;;;;;5043969;28;20271;-68
2022/08/26 08:31:55;;;;;;;1999.90;999.90;;;21.70;99.90;;;;;;5034986;28;20392;-69
2022/08/26 08:34:20;;;;;;;1999.90;999.90;;;21.70;99.90;;;;;;5033631;28;20410;-68
2022/08/26 08:36:46;;;;;;;1999.90;999.90;;;21.70;99.90;;;;;;5032994;28;20496;-68
2022/08/26 08:39:13;;;;;;;1999.90;999.90;;;21.80;99.90;;;;;;5033169;28;20207;-67
2022/08/26 08:41:47;;;;;;;1999.90;999.90;;;21.90;99.90;;;;;;5033526;28;20673;-67
2022/08/26 08:44:18;;;;;;;1999.90;999.90;;;21.90;99.90;;;;;;5033035;28;20421;-68
2022/08/26 08:46:49;;;;;;;1999.90;999.90;;;21.90;99.90;;;;;;5032456;28;20820;-68
2022/08/26 08:49:15;;;;;;;1999.90;999.90;;;21.80;99.90;;;;;;5032961;28;20399;-68
2022/08/26 08:51:53;;;;;;;1999.90;999.90;;;21.90;99.90;;;;;;5033016;28;20406;-68
2022/08/26 08:54:19;;;;;;;1999.90;999.90;;;22.00;99.90;;;;;;5032937;28;20766;-68
2022/08/26 08:56:58;;;;;;;1999.90;999.90;;;22.00;99.90;;;;;;5032515;28;20402;-68
2022/08/26 08:59:27;;;;;;;1999.90;999.90;;;22.00;99.90;;;;;;5032666;28;20414;-68
2022/08/26 09:02:04;;;;;;;1999.90;999.90;;;22.00;99.90;;;;;;5032769;28;20749;-68
2022/08/26 09:04:48;;;;;;;1999.90;999.90;;;22.10;99.90;;;;;;5032821;28;20783;-68
2022/08/26 09:07:25;;;;;;;1999.90;999.90;;;22.10;99.90;;;;;;5032442;28;20454;-68
2022/08/26 09:09:59;;;;;;;1999.90;999.90;;;22.10;99.90;;;;;;5035673;28;20419;-68
2022/08/26 09:12:30;;;;;;;1999.90;999.90;;;22.10;99.90;;;;;;5044772;28;20425;-68
2022/08/26 09:15:10;;;;;;;1999.90;999.90;;;22.10;99.90;;;;;;5044731;28;20409;-67
2022/08/26 09:17:47;;;;;;;1999.90;999.90;;;22.10;99.90;;;;;;5044762;28;20481;-67
2022/08/26 09:20:33;;;;;;;1999.90;999.90;;;22.10;99.90;;;;;;5044183;28;20427;-68
2022/08/26 09:22:59;;;;;;;1999.90;999.90;;;22.10;99.90;;;;;;5044928;28;20441;-68
2022/08/26 09:25:27;;;;;;;1999.90;999.90;;;22.10;99.90;;;;;;5043740;28;20405;-68
2022/08/26 09:27:53;;;;;;;1999.90;999.90;;;22.20;99.90;;;;;;5043886;28;20387;-68
2022/08/26 09:30:31;;;;;;;1999.90;999.90;;;22.40;99.90;;;;;;5044185;28;20445;-68
2022/08/26 09:33:15;;;;;;;1999.90;999.90;;;22.30;99.90;;;;;;5044998;28;20459;-68
2022/08/26 09:35:45;;;;;;;1999.90;999.90;;;22.30;99.90;;;;;;5045394;28;20373;-68
2022/08/26 09:38:31;;;;;;;1999.90;999.90;;;22.40;99.90;;;;;;5044457;28;20416;-68
2022/08/26 09:41:01;;;;;;;1999.90;999.90;;;22.30;99.90;;;;;;5033147;28;20405;-68
2022/08/26 09:43:27;;;;;;;1999.90;999.90;;;22.30;99.90;;;;;;5032040;28;20425;-68
2022/08/26 09:46:18;;;;;;;1999.90;999.90;;;22.20;99.90;;;;;;5032036;28;20503;-68
2022/08/26 09:48:43;;;;;;;1999.90;999.90;;;22.20;99.90;;;;;;5032142;28;20405;-67
2022/08/26 09:51:25;;;;;;;1999.90;999.90;;;22.20;99.90;;;;;;5032027;28;20384;-67
2022/08/26 09:53:58;;;;;;;1999.90;999.90;;;22.20;99.90;;;;;;5032582;28;20226;-68
2022/08/26 09:56:33;;;;;;;1999.90;999.90;;;22.20;99.90;;;;;;5029871;28;20507;-69
2022/08/26 09:59:00;;;;;;;1999.90;999.90;;;22.20;99.90;;;;;;5011854;28;20497;-70
2022/08/26 10:01:40;;;;;;;1999.90;999.90;;;22.20;99.90;;;;;;5012518;28;20478;-70
2022/08/26 10:04:08;;;;;;;1999.90;999.90;;;22.30;99.90;;;;;;5012168;28;20480;-71
2022/08/26 10:06:54;;;;;;;1999.90;999.90;;;22.40;99.90;;;;;;5012456;28;20390;-71
2022/08/26 10:09:20;;;;;;;1999.90;999.90;;;22.40;99.90;;;;;;5012705;28;20405;-71
2022/08/26 10:11:50;;;;;;;1999.90;999.90;;;22.40;99.90;;;;;;5012159;28;20422;-72
2022/08/26 10:14:33;;;;;;;1999.90;999.90;;;22.50;99.90;;;;;;5016981;28;20426;-68
2022/08/26 10:17:11;;;;;;;1999.90;999.90;;;22.50;99.90;;;;;;5029504;28;20831;-69
2022/08/26 10:19:50;;;;;;;1999.90;999.90;;;22.50;99.90;;;;;;5030075;28;20470;-68
2022/08/26 10:22:40;;;;;;;1999.90;999.90;;;22.70;99.90;;;;;;5030504;28;20373;-69
2022/08/26 10:25:11;;;;;;;1999.90;999.90;;;22.80;99.90;;;;;;5030146;28;20437;-69
2022/08/26 10:27:57;;;;;;;1999.90;999.90;;;22.70;99.90;;;;;;5030055;28;20411;-69
2022/08/26 10:30:29;;;;;;;1999.90;999.90;;;22.60;99.90;;;;;;5030353;28;20948;-68
2022/08/26 10:33:01;;;;;;;1999.90;999.90;;;22.70;99.90;;;;;;5031520;28;20404;-68
2022/08/26 10:35:27;;;;;;;1999.90;999.90;;;22.60;99.90;;;;;;5031561;28;20387;-68
2022/08/26 10:37:59;;;;;;;1999.90;999.90;;;22.60;99.90;;;;;;5031478;28;20424;-68
2022/08/26 10:40:48;;;;;;;1999.90;999.90;;;22.60;99.90;;;;;;5031635;28;20813;-69
2022/08/26 10:43:27;;;;;;;1999.90;999.90;;;22.70;99.90;;;;;;5031453;28;20882;-67
2022/08/26 10:46:06;;;;;;;1999.90;999.90;;;22.60;99.90;;;;;;5031571;28;20434;-67
2022/08/26 10:48:45;;;;;;;1999.90;999.90;;;22.60;99.90;;;;;;5031263;28;20433;-67
2022/08/26 10:51:13;;;;;;;1999.90;999.90;;;22.70;99.90;;;;;;5031488;28;20431;-67
2022/08/26 10:53:48;;;;;;;1999.90;999.90;;;22.70;99.90;;;;;;5031422;28;20395;-67
2022/08/26 10:56:19;;;;;;;1999.90;999.90;;;22.80;99.90;;;;;;5031049;28;20411;-67
2022/08/26 10:58:54;;;;;;;1999.90;999.90;;;22.80;99.90;;;;;;5031226;28;20411;-67
2022/08/26 11:01:53;;;;;;;1999.90;999.90;;;22.80;99.90;;;;;;5031371;28;20385;-67
2022/08/26 11:04:36;;;;;;;1999.90;999.90;;;23.00;99.90;;;;;;5031110;28;20483;-67
2022/08/26 11:07:36;;;;;;;1999.90;999.90;;;23.10;99.90;;;;;;5030959;28;20519;-67
2022/08/26 11:10:05;;;;;;;1999.90;999.90;;;23.10;99.90;;;;;;5032579;28;20422;-67
2022/08/26 11:12:33;;;;;;;1999.90;999.90;;;23.00;99.90;;;;;;5034726;28;20753;-67
2022/08/26 11:14:59;;;;;;;1999.90;999.90;;;23.00;99.90;;;;;;5034834;28;20383;-68
2022/08/26 11:17:43;;;;;;;1999.90;999.90;;;22.90;99.90;;;;;;5034669;28;20531;-67
2022/08/26 11:20:21;;;;;;;1999.90;999.90;;;22.70;99.90;;;;;;5034682;28;20408;-67
2022/08/26 11:22:48;;;;;;;1999.90;999.90;;;22.70;99.90;;;;;;5034615;28;20376;-67
2022/08/26 11:25:16;;;;;;;1999.90;999.90;;;22.60;99.90;;;;;;5034386;28;20432;-67
2022/08/26 11:27:48;;;;;;;1999.90;999.90;;;22.60;99.90;;;;;;5034086;28;20403;-67
2022/08/26 11:30:14;;;;;;;1999.90;999.90;;;22.70;99.90;;;;;;5034396;28;20453;-67
2022/08/26 11:32:40;;;;;;;1999.90;999.90;;;22.70;99.90;;;;;;5034472;28;20926;-67
2022/08/26 11:35:22;;;;;;;1999.90;999.90;;;22.80;99.90;;;;;;5034458;28;20645;-67
2022/08/26 11:37:56;;;;;;;1999.90;999.90;;;22.80;99.90;;;;;;5034005;28;20225;-67
2022/08/26 11:40:28;;;;;;;1999.90;999.90;;;22.80;99.90;;;;;;5034456;28;20444;-66
2022/08/26 11:42:58;;;;;;;1999.90;999.90;;;22.90;99.90;;;;;;5034311;28;20456;-68
2022/08/26 11:45:31;;;;;;;1999.90;999.90;;;23.00;99.90;;;;;;5034101;28;20465;-68
2022/08/26 11:47:57;;;;;;;1999.90;999.90;;;23.00;99.90;;;;;;5033763;28;20900;-67
2022/08/26 11:50:26;;;;;;;1999.90;999.90;;;23.00;99.90;;;;;;5033834;28;20411;-67
2022/08/26 11:52:55;;;;;;;1999.90;999.90;;;23.00;99.90;;;;;;5034001;28;20184;-67
2022/08/26 11:55:21;;;;;;;1999.90;999.90;;;23.00;99.90;;;;;;5033999;28;20487;-67
2022/08/26 11:57:51;;;;;;;1999.90;999.90;;;23.00;99.90;;;;;;5033707;28;20439;-67
2022/08/26 12:00:24;;;;;;;1999.90;999.90;;;22.90;99.90;;;;;;5034017;28;20777;-67
2022/08/26 12:02:50;;;;;;;1999.90;999.90;;;22.80;99.90;;;;;;5033830;28;20495;-67
2022/08/26 12:05:22;;;;;;;1999.90;999.90;;;22.90;99.90;;;;;;5033766;28;20461;-67
2022/08/26 12:07:50;;;;;;;1999.90;999.90;;;22.90;99.90;;;;;;5033403;28;20768;-68
2022/08/26 12:10:32;;;;;;;1999.90;999.90;;;22.70;99.90;;;;;;5033744;28;20897;-67
2022/08/26 12:12:59;;;;;;;1999.90;999.90;;;22.70;99.90;;;;;;5033659;28;20407;-66
2022/08/26 12:15:28;;;;;;;1999.90;999.90;;;22.60;99.90;;;;;;5033735;28;21344;-67